Time;durP1;ratioP1;P1;durP2;ratioP2;P2;SDS_P1;SDS_P2;PMS_P1;PMS_P2;Temp;Humidity;BMP_temperature;BMP_pressure;BME280_temperature;BME280_humidity;BME280_pressure;Samples;Min_cycle;Max_cycle;Signal;HPM_P1;HPM_P2
2022/08/05 00:01:32;;;;;;;6.55;2.35;;;;;;;18.43;100.00;101603.91;6131405;23;20021;-76
2022/08/05 00:04:03;;;;;;;4.38;1.80;;;;;;;18.45;100.00;101599.41;6077953;23;20025;-76
2022/08/05 00:06:35;;;;;;;6.25;2.00;;;;;;;18.47;100.00;101605.63;6154624;23;20014;-76
2022/08/05 00:09:04;;;;;;;5.18;1.60;;;;;;;18.48;100.00;101597.56;6130401;23;20459;-76
2022/08/05 00:11:42;;;;;;;3.13;1.42;;;;;;;18.48;100.00;101589.56;6133942;23;20018;-76
2022/08/05 00:14:17;;;;;;;3.80;1.52;;;;;;;18.48;100.00;101578.88;6146659;23;20022;-76
2022/08/05 00:16:46;;;;;;;3.95;1.60;;;;;;;18.47;100.00;101576.28;6155871;23;20013;-76
2022/08/05 00:19:21;;;;;;;4.57;1.40;;;;;;;18.45;100.00;101578.97;6132887;23;20025;-76
2022/08/05 00:21:50;;;;;;;1.98;1.40;;;;;;;18.46;100.00;101571.81;6155695;23;20025;-75
2022/08/05 00:24:21;;;;;;;1.92;1.20;;;;;;;18.48;100.00;101564.66;6147353;23;20266;-76
2022/08/05 00:26:59;;;;;;;3.33;1.40;;;;;;;18.49;100.00;101553.97;6129616;23;20483;-76
2022/08/05 00:29:31;;;;;;;4.10;1.50;;;;;;;18.51;100.00;101544.16;6130235;23;20028;-76
2022/08/05 00:32:07;;;;;;;3.92;1.48;;;;;;;18.49;100.00;101540.63;6152210;23;20021;-76
2022/08/05 00:34:43;;;;;;;2.88;1.52;;;;;;;18.47;100.00;101534.44;6112638;23;20351;-76
2022/08/05 00:37:32;;;;;;;2.95;1.50;;;;;;;18.48;100.00;101529.97;6129818;23;20017;-76
2022/08/05 00:40:25;;;;;;;3.00;1.30;;;;;;;18.46;100.00;101530.00;6130954;23;20021;-76
2022/08/05 00:43:01;;;;;;;1.92;1.38;;;;;;;18.44;100.00;101525.63;6121075;23;20021;-76
2022/08/05 00:45:34;;;;;;;5.28;1.95;;;;;;;18.45;100.00;101511.34;6109252;23;20022;-76
2022/08/05 00:48:15;;;;;;;3.05;1.50;;;;;;;18.44;100.00;101502.47;6150363;23;20039;-76
2022/08/05 00:50:48;;;;;;;3.63;1.70;;;;;;;18.44;100.00;101512.28;6136734;23;20025;-76
2022/08/05 00:53:21;;;;;;;4.75;1.40;;;;;;;18.46;100.00;101489.09;6147854;23;20017;-76
2022/08/05 00:56:10;;;;;;;4.93;1.98;;;;;;;18.47;100.00;101494.41;6150928;23;20447;-76
2022/08/05 00:58:44;;;;;;;3.97;2.13;;;;;;;18.45;100.00;101493.56;6125292;23;20024;-76
2022/08/05 01:01:15;;;;;;;8.38;1.83;;;;;;;18.43;100.00;101494.50;6133736;23;20044;-78
2022/08/05 01:04:04;;;;;;;3.00;1.92;;;;;;;18.41;100.00;101505.22;6112561;23;20018;-79
2022/08/05 01:06:41;;;;;;;4.57;1.50;;;;;;;18.40;100.00;101524.78;6104854;23;20494;-78
2022/08/05 01:09:20;;;;;;;4.43;1.67;;;;;;;18.41;100.00;101523.00;6064170;23;20033;-79
2022/08/05 01:11:52;;;;;;;4.15;1.33;;;;;;;18.39;100.00;101525.72;6119015;23;20029;-78
2022/08/05 01:14:39;;;;;;;6.22;1.95;;;;;;;18.40;100.00;101527.47;6083569;23;20252;-79
2022/08/05 01:17:35;;;;;;;6.15;2.17;;;;;;;18.42;100.00;101527.44;6124225;23;20025;-78
2022/08/05 01:20:35;;;;;;;3.85;1.40;;;;;;;18.43;100.00;101554.09;6073135;23;20021;-77
2022/08/05 01:23:14;;;;;;;6.88;2.08;;;;;;;18.41;100.00;101555.00;6122898;23;20356;-78
2022/08/05 01:26:09;;;;;;;5.05;1.50;;;;;;;18.39;100.00;101551.50;6096614;23;20018;-77
2022/08/05 01:28:45;;;;;;;6.10;1.58;;;;;;;18.39;100.00;101562.16;6125920;23;20018;-78
2022/08/05 01:31:26;;;;;;;1.75;1.42;;;;;;;18.39;100.00;101570.16;6092723;23;20052;-77
2022/08/05 01:34:06;;;;;;;5.03;1.52;;;;;;;18.37;100.00;101569.31;6109705;23;20029;-78
2022/08/05 01:36:43;;;;;;;3.28;1.50;;;;;;;18.35;100.00;101566.69;6093710;23;20356;-78
2022/08/05 01:39:15;;;;;;;2.60;1.30;;;;;;;18.35;100.00;101564.00;6116137;23;20021;-77
2022/08/05 01:42:11;;;;;;;3.03;1.55;;;;;;;18.33;100.00;101565.81;6103141;23;20022;-78
2022/08/05 01:44:44;;;;;;;4.53;1.92;;;;;;;18.33;100.00;101568.50;6087811;23;20047;-78
2022/08/05 01:47:23;;;;;;;1.67;1.33;;;;;;;18.31;100.00;101571.19;6121225;23;20014;-78
2022/08/05 01:50:17;;;;;;;3.20;1.58;;;;;;;18.29;100.00;101567.66;6125675;23;20022;-78
2022/08/05 01:53:09;;;;;;;3.13;1.63;;;;;;;18.29;100.00;101578.34;6084481;23;20049;-79
2022/08/05 01:55:41;;;;;;;4.40;1.35;;;;;;;18.29;100.00;101575.66;6118395;23;20028;-78
2022/08/05 01:58:12;;;;;;;6.10;1.40;;;;;;;18.28;100.00;101578.38;6100927;23;20351;-78
2022/08/05 02:00:49;;;;;;;4.00;2.03;;;;;;;18.30;100.00;101569.44;6089591;23;20026;-78
2022/08/05 02:03:36;;;;;;;6.78;1.50;;;;;;;18.29;100.00;101548.13;6107519;23;20048;-78
2022/08/05 02:06:07;;;;;;;4.25;1.55;;;;;;;18.28;100.00;101543.69;6122396;23;20037;-78
2022/08/05 02:08:56;;;;;;;5.20;1.65;;;;;;;18.26;100.00;101559.72;6135400;23;20248;-78
2022/08/05 02:11:31;;;;;;;;;;;;;;;18.24;100.00;101557.97;6122453;23;20029;-78
2022/08/05 02:14:11;;;;;;;3.00;1.80;;;;;;;18.21;100.00;101561.59;6115182;23;19916;-77
2022/08/05 02:17:04;;;;;;;1.58;1.40;;;;;;;18.19;100.00;101565.19;6122427;23;20025;-78
2022/08/05 02:19:44;;;;;;;2.10;1.40;;;;;;;18.16;100.00;101571.44;6085295;23;20024;-78
2022/08/05 02:22:18;;;;;;;1.67;1.50;;;;;;;18.15;100.00;101575.03;6106431;23;20018;-77
2022/08/05 02:25:20;;;;;;;1.95;1.45;;;;;;;18.14;100.00;101562.59;6089780;23;20947;-78
2022/08/05 02:27:50;;;;;;;2.92;1.55;;;;;;;18.13;100.00;101550.19;6117507;23;20231;-79
2022/08/05 02:30:34;;;;;;;4.00;1.52;;;;;;;18.11;100.00;101552.00;6103467;23;20026;-79
2022/08/05 02:33:03;;;;;;;4.63;1.70;;;;;;;18.09;100.00;101559.13;6110374;23;20033;-79
2022/08/05 02:35:36;;;;;;;2.15;1.42;;;;;;;18.07;100.00;101551.16;6125913;23;20033;-79
2022/08/05 02:38:27;;;;;;;;;;;;;;;18.06;100.00;101540.53;6089504;23;20018;-77
2022/08/05 02:41:03;;;;;;;6.50;1.50;;;;;;;18.03;100.00;101538.75;6127501;23;20555;-80
2022/08/05 02:43:47;;;;;;;4.18;1.38;;;;;;;18.01;100.00;101559.25;6112181;23;20348;-78
2022/08/05 02:46:42;;;;;;;6.38;1.90;;;;;;;18.00;100.00;101561.97;6146357;23;20355;-77
2022/08/05 02:49:27;;;;;;;;;;;;;;;17.98;100.00;101550.44;6122041;23;20017;-78
2022/08/05 02:52:22;;;;;;;6.63;1.83;;;;;;;17.93;100.00;101564.69;6151420;23;20055;-77
2022/08/05 02:54:59;;;;;;;2.70;1.42;;;;;;;17.93;100.00;101564.69;6105819;23;20514;-78
2022/08/05 02:57:33;;;;;;;4.13;1.60;;;;;;;17.92;100.00;101567.41;6078796;23;20024;-79
2022/08/05 03:00:22;;;;;;;2.00;1.48;;;;;;;17.91;100.00;101566.53;6116730;23;20025;-79
2022/08/05 03:02:56;;;;;;;3.85;1.60;;;;;;;17.90;100.00;101570.09;6147415;23;20594;-78
2022/08/05 03:05:26;;;;;;;5.53;1.90;;;;;;;17.90;100.00;101564.78;6123634;23;20018;-78
2022/08/05 03:08:15;;;;;;;4.40;1.70;;;;;;;17.91;100.00;101557.66;6124520;23;20026;-78
2022/08/05 03:10:54;;;;;;;5.18;2.03;;;;;;;17.91;100.00;101570.97;6106423;23;20028;-77
2022/08/05 03:13:43;;;;;;;3.42;1.50;;;;;;;17.91;100.00;101577.19;6105564;23;20022;-78
2022/08/05 03:16:30;;;;;;;2.33;1.65;;;;;;;17.92;100.00;101588.75;6126953;23;20348;-77
2022/08/05 03:19:00;;;;;;;2.20;1.75;;;;;;;17.93;100.00;101586.03;6077012;23;20024;-78
2022/08/05 03:21:39;;;;;;;2.75;1.60;;;;;;;17.90;100.00;101594.09;6098552;23;20025;-78
2022/08/05 03:24:19;;;;;;;1.95;1.80;;;;;;;17.90;100.00;101596.78;6097079;23;20485;-78
2022/08/05 03:26:58;;;;;;;3.55;2.40;;;;;;;17.88;100.00;101598.59;6105888;23;20617;-77
2022/08/05 03:29:27;;;;;;;4.15;2.25;;;;;;;17.86;100.00;101603.06;6103081;23;20013;-77
2022/08/05 03:32:18;;;;;;;2.97;2.67;;;;;;;17.84;100.00;101599.50;6147577;23;20021;-78
2022/08/05 03:34:47;;;;;;;5.32;2.95;;;;;;;17.81;100.00;101596.88;6096223;23;20021;-78
2022/08/05 03:37:19;;;;;;;9.90;2.72;;;;;;;17.81;100.00;101591.53;6093168;23;20026;-78
2022/08/05 03:39:59;;;;;;;5.40;2.40;;;;;;;17.79;100.00;101588.03;6123501;23;20017;-78
2022/08/05 03:42:30;;;;;;;5.55;2.38;;;;;;;17.76;100.00;101588.06;6075178;23;20029;-79
2022/08/05 03:45:19;;;;;;;6.68;2.72;;;;;;;17.74;100.00;101581.88;6123117;23;20018;-79
2022/08/05 03:47:50;;;;;;;5.82;2.78;;;;;;;17.73;100.00;101580.09;6098832;23;20018;-77
2022/08/05 03:50:32;;;;;;;5.43;2.63;;;;;;;17.73;100.00;101582.75;6093185;23;20022;-77
2022/08/05 03:53:08;;;;;;;5.30;2.60;;;;;;;17.72;100.00;101584.53;6147021;23;20156;-78
2022/08/05 03:56:03;;;;;;;2.70;2.30;;;;;;;17.70;100.00;101583.69;6124352;23;20144;-77
2022/08/05 03:58:47;;;;;;;3.07;2.60;;;;;;;17.69;100.00;101584.63;6117639;23;20133;-78
2022/08/05 04:01:21;;;;;;;5.60;3.00;;;;;;;17.70;100.00;101574.81;6122912;23;20022;-78
2022/08/05 04:03:51;;;;;;;4.55;2.55;;;;;;;17.69;100.00;101583.72;6123521;23;20018;-78
2022/08/05 04:06:38;;;;;;;4.57;2.63;;;;;;;17.69;100.00;101586.38;6113631;23;20021;-78
2022/08/05 04:09:16;;;;;;;3.78;2.50;;;;;;;17.67;100.00;101575.72;6127849;23;20336;-78
2022/08/05 04:11:48;;;;;;;4.97;3.00;;;;;;;17.68;100.00;101580.16;6047441;23;20136;-78
2022/08/05 04:14:20;;;;;;;5.65;2.70;;;;;;;17.66;100.00;101573.97;6081495;23;20022;-78
2022/08/05 04:16:59;;;;;;;3.15;2.08;;;;;;;17.65;100.00;101580.19;6084773;23;20599;-79
2022/08/05 04:19:28;;;;;;;5.67;2.10;;;;;;;17.64;100.00;101569.59;6095439;23;20014;-78
2022/08/05 04:21:57;;;;;;;6.32;2.20;;;;;;;17.64;100.00;101559.81;6116504;23;20052;-78
2022/08/05 04:24:43;;;;;;;3.40;2.28;;;;;;;17.64;100.00;101562.47;6080420;23;20022;-78
2022/08/05 04:27:20;;;;;;;7.18;2.13;;;;;;;17.63;100.00;101555.34;6129260;23;20049;-77
2022/08/05 04:30:09;;;;;;;3.40;2.40;;;;;;;17.62;100.00;101550.09;6139906;23;20284;-78
2022/08/05 04:32:37;;;;;;;4.63;2.08;;;;;;;17.61;100.00;101551.84;6087272;23;20025;-79
2022/08/05 04:35:09;;;;;;;3.47;1.90;;;;;;;17.59;100.00;101558.97;6103770;23;20018;-77
2022/08/05 04:37:46;;;;;;;4.63;2.08;;;;;;;17.59;100.00;101558.97;6119615;23;20311;-79
2022/08/05 04:40:38;;;;;;;2.85;1.92;;;;;;;17.60;100.00;101565.19;6104147;23;20355;-78
2022/08/05 04:43:15;;;;;;;4.68;2.08;;;;;;;17.58;100.00;101567.91;6094561;23;20025;-79
2022/08/05 04:45:44;;;;;;;6.65;2.70;;;;;;;17.58;100.00;101577.66;6050953;23;20021;-78
2022/08/05 04:48:21;;;;;;;2.08;1.90;;;;;;;17.59;100.00;101576.75;6149993;23;20048;-77
2022/08/05 04:50:56;;;;;;;5.45;2.75;;;;;;;17.59;100.00;101579.44;6068048;23;20232;-79
2022/08/05 04:53:37;;;;;;;6.18;2.20;;;;;;;17.60;100.00;101575.84;6121272;23;20022;-78
2022/08/05 04:56:07;;;;;;;4.90;2.30;;;;;;;17.60;100.00;101579.41;6102610;23;20026;-78
2022/08/05 04:58:55;;;;;;;3.78;2.20;;;;;;;17.62;100.00;101574.06;6125134;23;20026;-78
2022/08/05 05:01:24;;;;;;;7.50;3.58;;;;;;;17.64;100.00;101583.78;6104929;23;20022;-78
2022/08/05 05:04:12;;;;;;;4.88;2.60;;;;;;;17.64;100.00;101582.91;6106963;23;20026;-78
2022/08/05 05:06:41;;;;;;;5.85;2.38;;;;;;;17.65;100.00;101582.00;6074274;23;20022;-78
2022/08/05 05:09:16;;;;;;;3.45;2.10;;;;;;;17.67;100.00;101582.84;6122075;23;20033;-77
2022/08/05 05:11:45;;;;;;;4.43;1.92;;;;;;;17.69;100.00;101575.72;6122946;23;20502;-79
2022/08/05 05:14:23;;;;;;;2.67;2.20;;;;;;;17.71;100.00;101585.47;6126419;23;20017;-78
2022/08/05 05:16:59;;;;;;;6.07;2.50;;;;;;;17.73;100.00;101590.75;6098439;23;20932;-79
2022/08/05 05:19:28;;;;;;;3.05;2.30;;;;;;;17.74;100.00;101587.19;6077753;23;20363;-78
2022/08/05 05:22:06;;;;;;;4.60;2.20;;;;;;;17.76;100.00;101597.84;6125782;23;20029;-77
2022/08/05 05:24:54;;;;;;;8.00;2.03;;;;;;;17.76;100.00;101604.03;6083989;23;20702;-78
2022/08/05 05:27:28;;;;;;;5.10;2.33;;;;;;;17.75;100.00;101602.31;6126649;23;20026;-79
2022/08/05 05:30:14;;;;;;;4.88;2.05;;;;;;;17.78;100.00;101599.56;6116380;23;20018;-78
2022/08/05 05:32:59;;;;;;;5.90;3.03;;;;;;;17.78;100.00;101607.56;6108886;23;20338;-78
2022/08/05 05:35:45;;;;;;;4.13;2.33;;;;;;;17.79;100.00;101612.00;6121463;23;20055;-78
2022/08/05 05:38:16;;;;;;;6.03;2.88;;;;;;;17.78;100.00;101620.91;6127441;23;20026;-78
2022/08/05 05:40:55;;;;;;;3.42;2.22;;;;;;;17.78;100.00;101604.03;6062842;23;20014;-78
2022/08/05 05:43:24;;;;;;;6.22;3.85;;;;;;;17.80;100.00;101611.09;6114883;23;20027;-79
2022/08/05 05:46:12;;;;;;;4.03;2.45;;;;;;;17.82;100.00;101603.94;6126012;23;20348;-77
2022/08/05 05:48:46;;;;;;;4.70;2.70;;;;;;;17.83;100.00;101605.72;6119720;23;20018;-77
2022/08/05 05:51:24;;;;;;;8.50;2.70;;;;;;;17.84;100.00;101596.84;6083189;23;20026;-78
2022/08/05 05:53:58;;;;;;;3.83;2.47;;;;;;;17.84;100.00;101593.25;6113482;23;20026;-78
2022/08/05 05:56:28;;;;;;;3.83;2.05;;;;;;;17.83;100.00;101592.38;6085509;23;20240;-77
2022/08/05 05:59:05;;;;;;;6.75;2.50;;;;;;;17.85;100.00;101593.28;6113909;23;20026;-79
2022/08/05 06:01:37;;;;;;;7.28;2.80;;;;;;;17.87;100.00;101590.59;6118187;23;20254;-78
2022/08/05 06:04:09;;;;;;;6.22;2.40;;;;;;;17.89;100.00;101596.78;6100316;23;20026;-78
2022/08/05 06:06:43;;;;;;;8.48;2.28;;;;;;;17.90;100.00;101596.78;6123527;23;20148;-78
2022/08/05 06:09:16;;;;;;;4.97;2.17;;;;;;;17.92;100.00;101594.97;6142392;23;20466;-78
2022/08/05 06:12:05;;;;;;;5.13;2.65;;;;;;;17.98;100.00;101588.66;6121854;23;20328;-80
2022/08/05 06:14:36;;;;;;;7.93;2.78;;;;;;;18.01;100.00;101588.56;6044809;23;20125;-79
2022/08/05 06:17:07;;;;;;;;;;;;;;;18.07;100.00;101587.59;6089649;23;20022;-80
2022/08/05 06:19:55;;;;;;;3.38;1.98;;;;;;;18.15;100.00;101580.38;6100474;23;19923;-79
2022/08/05 06:22:29;;;;;;;4.35;1.95;;;;;;;18.27;100.00;101577.47;6095941;23;20049;-79
2022/08/05 06:25:03;;;;;;;4.30;1.70;;;;;;;18.42;100.00;101584.34;6121610;23;20025;-79
2022/08/05 06:27:52;;;;;;;3.95;1.70;;;;;;;18.58;100.00;101581.38;6138620;23;20022;-79
2022/08/05 06:30:40;;;;;;;3.78;1.88;;;;;;;18.72;100.00;101582.03;6097586;23;20236;-80
2022/08/05 06:33:08;;;;;;;2.75;1.95;;;;;;;18.82;100.00;101583.63;6103395;23;20025;-79
2022/08/05 06:35:38;;;;;;;3.28;1.80;;;;;;;18.90;100.00;101580.81;6083833;23;20025;-78
2022/08/05 06:38:26;;;;;;;3.15;1.77;;;;;;;18.99;100.00;101583.28;6102431;23;20029;-78
2022/08/05 06:41:04;;;;;;;4.72;1.60;;;;;;;19.03;100.00;101587.66;6095274;23;20022;-79
2022/08/05 06:43:36;;;;;;;3.67;1.70;;;;;;;19.09;100.00;101598.25;6111100;23;20022;-80
2022/08/05 06:46:24;;;;;;;2.70;1.67;;;;;;;19.20;100.00;101589.13;6084667;23;20025;-78
2022/08/05 06:48:58;;;;;;;7.55;1.83;;;;;;;19.35;100.00;101594.13;6057060;23;20227;-79
2022/08/05 06:51:29;;;;;;;1.42;1.08;;;;;;;19.48;100.00;101589.41;6115997;23;20037;-79
2022/08/05 06:54:00;;;;;;;2.60;1.27;;;;;;;19.57;100.00;101593.69;6099211;23;20022;-79
2022/08/05 06:56:31;;;;;;;4.70;1.48;;;;;;;19.70;100.00;101596.94;6119777;23;20036;-79
2022/08/05 06:59:06;;;;;;;5.65;1.83;;;;;;;19.79;100.00;101607.44;6124955;23;20014;-76
2022/08/05 07:01:37;;;;;;;2.65;1.17;;;;;;;19.86;100.00;101607.28;6115208;23;20025;-77
2022/08/05 07:04:08;;;;;;;1.63;1.10;;;;;;;19.97;100.00;101603.47;6081641;23;20022;-77
2022/08/05 07:06:37;;;;;;;4.75;1.10;;;;;;;20.08;100.00;101613.94;6140416;23;20029;-77
2022/08/05 07:09:05;;;;;;;2.03;1.00;;;;;;;20.18;100.00;101608.28;6123721;23;20026;-77
2022/08/05 07:11:34;;;;;;;3.33;0.90;;;;;;;20.28;100.00;101602.72;6118539;23;20025;-77
2022/08/05 07:16:59;;;;;;;2.67;0.90;;;;;;;20.29;100.00;101620.53;6113985;23;20026;-76
2022/08/05 07:19:51;;;;;;;2.88;1.10;;;;;;;20.23;100.00;101613.56;6115860;23;20018;-77
2022/08/05 07:22:39;;;;;;;3.05;1.08;;;;;;;20.17;100.00;101614.59;6089340;23;20029;-77
2022/08/05 07:25:09;;;;;;;2.33;0.90;;;;;;;20.11;100.00;101625.41;6101098;23;20478;-77
2022/08/05 07:27:58;;;;;;;4.07;1.10;;;;;;;20.02;100.00;101620.31;6097962;23;20243;-76
2022/08/05 07:30:37;;;;;;;7.55;1.35;;;;;;;20.00;100.00;101619.44;6115357;23;20037;-77
2022/08/05 07:33:09;;;;;;;1.73;0.98;;;;;;;20.03;100.00;101630.06;6117871;23;20340;-77
2022/08/05 07:35:44;;;;;;;4.57;1.10;;;;;;;20.16;100.00;101628.00;6099765;23;20033;-77
2022/08/05 07:38:34;;;;;;;3.33;1.20;;;;;;;20.32;100.00;101616.00;6088537;23;20029;-77
2022/08/05 07:41:16;;;;;;;3.47;0.93;;;;;;;20.35;100.00;101623.06;6086893;23;20351;-78
2022/08/05 07:44:07;;;;;;;2.28;1.00;;;;;;;20.36;100.00;101623.03;6137260;23;20025;-76
2022/08/05 07:46:47;;;;;;;2.78;1.15;;;;;;;20.47;100.00;101617.38;6119499;23;20258;-77
2022/08/05 07:49:18;;;;;;;3.28;0.80;;;;;;;20.59;100.00;101614.41;6085189;23;20347;-78
2022/08/05 07:51:47;;;;;;;2.80;1.00;;;;;;;20.73;100.00;101623.91;6092556;23;20128;-77
2022/08/05 07:54:25;;;;;;;1.23;1.05;;;;;;;20.78;100.00;101624.66;6103744;23;20361;-77
2022/08/05 07:57:02;;;;;;;3.00;0.77;;;;;;;20.78;100.00;101628.19;6121005;23;20244;-77
2022/08/05 07:59:50;;;;;;;2.55;0.90;;;;;;;20.77;100.00;101628.25;6146726;23;20479;-77
2022/08/05 08:02:24;;;;;;;2.08;1.30;;;;;;;20.76;100.00;101632.72;6125981;23;20325;-77
2022/08/05 08:04:55;;;;;;;1.67;0.70;;;;;;;20.76;100.00;101623.81;6093664;23;20247;-77
2022/08/05 08:07:23;;;;;;;1.23;0.70;;;;;;;20.72;99.89;101624.78;6124185;23;20479;-77
2022/08/05 08:09:55;;;;;;;4.43;0.90;;;;;;;20.72;100.00;101624.78;6083843;23;20261;-77
2022/08/05 08:12:28;;;;;;;3.55;1.05;;;;;;;20.77;100.00;101625.56;6107328;23;20022;-76
2022/08/05 08:15:16;;;;;;;1.52;0.90;;;;;;;20.87;100.00;101621.72;6124844;23;20466;-77
2022/08/05 08:18:05;;;;;;;3.05;1.25;;;;;;;20.92;99.97;101618.91;6124182;23;20029;-76
2022/08/05 08:20:41;;;;;;;1.70;0.88;;;;;;;20.99;99.34;101626.72;6097314;23;20033;-77
2022/08/05 08:23:30;;;;;;;1.90;0.77;;;;;;;21.05;98.74;101622.13;6086492;23;20025;-77
2022/08/05 08:26:19;;;;;;;0.80;0.80;;;;;;;21.04;97.08;101618.59;6089357;23;20029;-77
2022/08/05 08:28:58;;;;;;;2.72;0.80;;;;;;;21.01;96.28;101619.53;6087562;23;20022;-77
2022/08/05 08:31:47;;;;;;;2.03;0.90;;;;;;;21.01;96.25;101616.84;6118063;23;20373;-76
2022/08/05 08:34:17;;;;;;;1.55;0.95;;;;;;;21.09;95.55;101623.78;6122839;23;20459;-77
2022/08/05 08:36:58;;;;;;;5.28;1.02;;;;;;;21.09;95.07;101619.31;6103820;23;20025;-77
2022/08/05 08:39:34;;;;;;;2.08;0.80;;;;;;;21.10;94.81;101621.09;6119874;23;20352;-77
2022/08/05 08:42:07;;;;;;;0.93;0.68;;;;;;;21.20;95.34;101609.16;6099199;23;20022;-77
2022/08/05 08:44:57;;;;;;;1.00;1.00;;;;;;;21.34;94.15;101618.59;6125683;23;20372;-77
2022/08/05 08:47:47;;;;;;;3.50;1.00;;;;;;;21.28;93.73;101625.00;6100277;23;20028;-76
2022/08/05 08:50:39;;;;;;;;;;;;;;;21.17;91.33;101620.00;6122660;23;20032;-77
2022/08/05 08:53:35;;;;;;;3.03;0.90;;;;;;;21.10;94.60;101630.94;6103639;23;19916;-78
2022/08/05 08:56:04;;;;;;;1.17;0.80;;;;;;;21.03;94.14;101623.03;6143470;23;20018;-78
2022/08/05 08:58:34;;;;;;;1.70;0.80;;;;;;;21.08;93.67;101627.38;6095788;23;20359;-78
2022/08/05 09:01:17;;;;;;;2.00;0.60;;;;;;;21.09;93.52;101621.13;6121602;23;20029;-76
2022/08/05 09:03:52;;;;;;;1.73;1.00;;;;;;;21.04;91.98;101621.25;6085741;23;20033;-77
2022/08/05 09:06:27;;;;;;;4.80;1.13;;;;;;;21.05;91.99;101622.13;6121239;23;20222;-78
2022/08/05 09:08:59;;;;;;;2.97;0.80;;;;;;;21.02;91.77;101637.38;6099858;23;20022;-78
2022/08/05 09:11:29;;;;;;;2.15;0.90;;;;;;;20.94;93.17;101641.19;6114937;23;20040;-76
2022/08/05 09:14:18;;;;;;;1.65;0.90;;;;;;;20.78;94.65;101646.09;6099570;23;20014;-77
2022/08/05 09:17:09;;;;;;;3.22;0.98;;;;;;;20.74;96.31;101639.94;6114472;23;20240;-76
2022/08/05 09:19:59;;;;;;;4.72;1.38;;;;;;;20.79;96.47;101647.81;6098606;23;20022;-78
2022/08/05 09:23:10;;;;;;;1.83;0.80;;;;;;;20.81;95.68;101649.56;6070886;23;20029;-76
2022/08/05 09:25:51;;;;;;;2.65;0.88;;;;;;;20.94;96.89;101641.19;6118902;23;20014;-78
2022/08/05 09:28:35;;;;;;;1.15;0.90;;;;;;;21.10;97.55;101641.66;6107715;23;20552;-77
2022/08/05 09:31:06;;;;;;;2.17;0.90;;;;;;;21.23;96.69;101635.00;6081587;23;20032;-76
2022/08/05 09:33:57;;;;;;;4.50;1.25;;;;;;;21.46;96.50;101634.38;6102403;23;20026;-77
2022/08/05 09:36:40;;;;;;;1.42;1.15;;;;;;;21.72;96.31;101633.59;6103652;23;20802;-77
2022/08/05 09:39:25;;;;;;;5.75;1.20;;;;;;;21.85;95.57;101641.22;6080103;23;20136;-76
2022/08/05 09:42:15;;;;;;;1.80;0.70;;;;;;;21.76;93.08;101653.16;6113812;23;20334;-76
2022/08/05 09:44:53;;;;;;;3.65;1.10;;;;;;;21.45;93.14;101669.25;6122362;23;20014;-77
2022/08/05 09:47:26;;;;;;;1.45;1.00;;;;;;;21.31;93.80;101665.16;6107661;23;20024;-78
2022/08/05 09:50:18;;;;;;;2.65;0.70;;;;;;;21.24;93.87;101663.56;6084909;23;20071;-77
2022/08/05 09:53:07;;;;;;;1.80;0.70;;;;;;;21.28;92.84;101662.53;6120775;23;20045;-77
2022/08/05 09:55:39;;;;;;;1.67;0.65;;;;;;;21.38;91.66;101664.06;6074059;23;20013;-77
2022/08/05 09:58:28;;;;;;;1.30;0.70;;;;;;;21.35;90.21;101668.63;6118610;23;20018;-79
2022/08/05 10:01:02;;;;;;;2.72;0.80;;;;;;;21.31;88.32;101662.47;6117527;23;20032;-78
2022/08/05 10:03:55;;;;;;;3.08;0.88;;;;;;;21.39;87.32;101665.78;6095759;23;20029;-77
2022/08/05 10:06:27;;;;;;;1.33;0.60;;;;;;;21.48;87.78;101682.59;6091434;23;20028;-78
2022/08/05 10:09:10;;;;;;;1.00;0.82;;;;;;;21.41;85.89;101673.81;6062232;23;20251;-77
2022/08/05 10:12:09;;;;;;;0.95;0.93;;;;;;;21.35;85.83;101676.66;6117497;23;20395;-77
2022/08/05 10:15:25;;;;;;;0.80;0.70;;;;;;;21.45;85.08;101674.63;6112643;23;20475;-78
2022/08/05 10:18:07;;;;;;;1.40;0.60;;;;;;;21.62;85.25;101677.69;6078211;23;20053;-77
2022/08/05 10:20:46;;;;;;;0.55;0.50;;;;;;;21.72;83.10;101678.28;6122370;23;20022;-78
2022/08/05 10:23:18;;;;;;;2.50;0.50;;;;;;;21.76;80.77;101670.13;6121195;23;20474;-77
2022/08/05 10:26:11;;;;;;;2.60;0.90;;;;;;;21.74;80.29;101679.13;6099799;23;20383;-78
2022/08/05 10:28:59;;;;;;;0.75;0.50;;;;;;;21.71;80.53;101682.78;6133043;23;20018;-76
2022/08/05 10:31:28;;;;;;;0.68;0.68;;;;;;;21.74;78.26;101682.69;6100042;23;20029;-78
2022/08/05 10:34:18;;;;;;;1.33;0.30;;;;;;;21.79;76.19;101683.41;6081390;23;20463;-77
2022/08/05 10:36:53;;;;;;;0.75;0.50;;;;;;;21.86;74.88;101691.28;6116816;23;20029;-77
2022/08/05 10:39:28;;;;;;;2.13;0.77;;;;;;;21.89;73.49;101686.72;6097394;23;20022;-77
2022/08/05 10:42:21;;;;;;;2.40;0.70;;;;;;;21.98;72.40;101686.44;6102764;23;20029;-77
2022/08/05 10:45:03;;;;;;;1.92;0.70;;;;;;;21.97;69.92;101690.03;6114755;23;20022;-82
2022/08/05 10:47:52;;;;;;;0.65;0.50;;;;;;;21.84;69.18;101690.47;6087012;23;20552;-77
2022/08/05 10:51:01;;;;;;;0.68;0.68;;;;;;;21.82;63.55;101697.69;6100105;23;20022;-77
2022/08/05 10:53:39;;;;;;;;;;;;;;;21.78;57.98;101695.09;6089401;23;20028;-75
2022/08/05 10:56:14;;;;;;;;;;;;;;;21.79;57.56;101695.94;6145902;23;19917;-75
2022/08/05 10:58:53;;;;;;;2.05;0.50;;;;;;;21.84;66.03;101711.94;6099746;23;19916;-75
2022/08/05 11:01:30;;;;;;;1.00;0.40;;;;;;;21.85;58.92;101702.94;6140999;23;20021;-75
2022/08/05 11:04:22;;;;;;;0.63;0.40;;;;;;;21.89;62.59;101702.81;6126320;23;20022;-75
2022/08/05 11:06:56;;;;;;;0.40;0.40;;;;;;;21.93;62.21;101719.69;6106368;23;20021;-75
2022/08/05 11:09:53;;;;;;;3.25;0.60;;;;;;;22.00;60.57;101727.53;6120379;23;20029;-75
2022/08/05 11:12:40;;;;;;;0.77;0.40;;;;;;;22.06;60.91;101722.88;6115774;23;20367;-74
2022/08/05 11:15:27;;;;;;;0.65;0.50;;;;;;;22.11;59.10;101728.97;6103380;23;20291;-75
2022/08/05 11:18:28;;;;;;;1.42;0.38;;;;;;;22.19;57.55;101738.56;6121618;23;20029;-76
2022/08/05 11:20:57;;;;;;;1.48;0.60;;;;;;;22.15;58.41;101744.94;6121987;23;20022;-77
2022/08/05 11:23:50;;;;;;;1.73;0.50;;;;;;;22.13;58.45;101743.22;6119495;23;20022;-75
2022/08/05 11:26:38;;;;;;;0.65;0.55;;;;;;;22.15;57.76;101749.41;6101242;23;20022;-75
2022/08/05 11:29:34;;;;;;;0.90;0.40;;;;;;;22.17;56.67;101761.91;6101243;23;20490;-75
2022/08/05 11:32:27;;;;;;;1.17;0.38;;;;;;;22.25;55.65;101767.06;6117299;23;20223;-75
2022/08/05 11:34:56;;;;;;;0.63;0.63;;;;;;;22.22;55.94;101763.56;6111170;23;20018;-75
2022/08/05 11:37:38;;;;;;;8.00;0.60;;;;;;;22.18;52.35;101774.38;6101768;23;20022;-76
2022/08/05 11:40:56;;;;;;;0.75;0.43;;;;;;;22.14;52.73;101777.22;6121306;23;20029;-76
2022/08/05 11:43:51;;;;;;;1.95;0.45;;;;;;;22.15;53.38;101787.88;6109292;23;20021;-75
2022/08/05 11:46:34;;;;;;;0.90;0.40;;;;;;;22.32;57.44;101790.06;6088432;23;20026;-75
2022/08/05 11:49:06;;;;;;;1.67;0.70;;;;;;;22.51;57.86;101792.19;6109594;23;20045;-75
2022/08/05 11:51:39;;;;;;;2.08;0.70;;;;;;;22.63;58.44;101801.66;6094380;23;20022;-75
2022/08/05 11:54:26;;;;;;;2.13;0.50;;;;;;;22.48;54.21;101805.75;6119938;23;20033;-75
2022/08/05 11:57:03;;;;;;;1.40;0.50;;;;;;;22.29;57.99;101814.34;6093044;23;20021;-76
2022/08/05 11:59:40;;;;;;;1.65;0.57;;;;;;;22.17;58.83;101814.69;6113255;23;20026;-76
2022/08/05 12:02:23;;;;;;;1.33;0.52;;;;;;;22.00;59.17;101818.75;6096589;23;20029;-76
2022/08/05 12:05:02;;;;;;;3.40;0.50;;;;;;;21.83;61.22;101826.41;6083521;23;20018;-75
2022/08/05 12:07:37;;;;;;;3.60;0.40;;;;;;;21.89;62.05;101828.94;6142528;23;20451;-75
2022/08/05 12:10:27;;;;;;;1.58;0.50;;;;;;;21.77;60.91;101843.53;6120730;23;20017;-76
2022/08/05 12:13:15;;;;;;;1.02;0.30;;;;;;;21.77;60.81;101842.66;6127087;23;20022;-81
2022/08/05 12:16:08;;;;;;;5.72;0.90;;;;;;;21.87;61.16;101849.56;6099700;23;20355;-76
2022/08/05 12:18:44;;;;;;;0.95;0.50;;;;;;;21.90;62.16;101848.56;6129008;23;20020;-75
2022/08/05 12:21:23;;;;;;;1.88;0.52;;;;;;;21.97;61.75;101853.72;6120338;23;20021;-75
2022/08/05 12:23:58;;;;;;;4.78;0.95;;;;;;;21.97;61.06;101851.03;6101270;23;20263;-77